Claflin, Kansas
Current Conditions -  °F | °C
As of 7:55 AM on Saturday 25 Oct 2014 (Local Time) from KGBD Reporting Station
Clear Clear  
Wind Chill: 44°   Ceiling: Unl
Heat Index: 46°   Visibility: 5mi
Dew Point: 43°   Wind: 6mph
Humidity: 87%   Direction: 220°SW
Pressure: 30.07"   Gusts: NA
Location:  38.53°N, 98.53°W
Report Text: KGBD 251255Z AUTO 22005KT 5SM CLR 08/06 A3007 RMK AO1
Loading
Personal Weather Stations






























Interactive Weather Map
Tropical Storm Tracking
New forecast layout! Learn more

10-Day Weather Forecast

Advertisements
Track Severe Weather on mobile